createdAt,value
2018-10-18T00:00:10.135Z,88.60
2018-10-18T00:02:38.896Z,88.70
2018-10-18T00:05:08.974Z,89.10
2018-10-18T00:07:37.834Z,89.30
2018-10-18T00:10:08.067Z,89.70
2018-10-18T00:12:36.728Z,90.10
2018-10-18T00:15:06.689Z,90.20
2018-10-18T00:17:40.616Z,90.30
2018-10-18T00:20:09.523Z,90.70
2018-10-18T00:22:38.154Z,91.20
2018-10-18T00:25:07.093Z,91.00
2018-10-18T00:27:36.121Z,90.80
2018-10-18T00:30:06.523Z,90.80
2018-10-18T00:32:35.245Z,90.60
2018-10-18T00:35:04.088Z,90.60
2018-10-18T00:37:33.022Z,90.50
2018-10-18T00:40:01.767Z,90.40
2018-10-18T00:42:30.424Z,90.20
2018-10-18T00:44:59.098Z,90.20
2018-10-18T00:47:27.781Z,90.10
2018-10-18T00:49:56.599Z,90.30
2018-10-18T00:52:25.308Z,90.20
2018-10-18T00:54:54.106Z,90.10
2018-10-18T00:57:22.837Z,90.30
2018-10-18T00:59:51.541Z,90.40
2018-10-18T01:02:20.316Z,90.50
2018-10-18T01:04:49.025Z,90.90
2018-10-18T01:07:17.751Z,91.20
2018-10-18T01:09:46.478Z,91.30
2018-10-18T01:12:15.277Z,91.20
2018-10-18T01:14:43.880Z,91.30
2018-10-18T01:17:12.834Z,91.30
2018-10-18T01:19:41.570Z,91.30
2018-10-18T01:22:10.500Z,91.20
2018-10-18T01:24:39.239Z,91.00
2018-10-18T01:27:08.398Z,90.90
2018-10-18T01:29:38.062Z,90.90
2018-10-18T01:32:07.363Z,90.80
2018-10-18T01:34:36.080Z,90.70
2018-10-18T01:37:06.315Z,90.70
2018-10-18T01:39:35.066Z,90.70
2018-10-18T01:42:03.968Z,90.70
2018-10-18T01:44:32.659Z,90.60
2018-10-18T01:47:01.333Z,90.50
2018-10-18T01:49:30.014Z,90.50
2018-10-18T01:51:58.687Z,90.40
2018-10-18T01:54:27.430Z,90.30
2018-10-18T01:56:56.192Z,90.50
2018-10-18T01:59:25.139Z,90.50
2018-10-18T02:01:53.853Z,90.60
2018-10-18T02:04:22.595Z,90.70
2018-10-18T02:06:51.345Z,90.70
2018-10-18T02:09:20.059Z,90.90
2018-10-18T02:11:49.088Z,91.00
2018-10-18T02:14:17.696Z,91.00
2018-10-18T02:16:46.423Z,91.00
2018-10-18T02:19:15.381Z,91.10
2018-10-18T02:21:43.958Z,91.10
2018-10-18T02:24:12.707Z,91.00
2018-10-18T02:26:41.414Z,90.70
2018-10-18T02:29:10.348Z,90.60
2018-10-18T02:31:39.082Z,90.60
2018-10-18T02:34:08.041Z,90.60
2018-10-18T02:36:36.835Z,90.60
2018-10-18T02:39:07.609Z,90.70
2018-10-18T02:41:36.521Z,90.80
2018-10-18T02:44:05.442Z,90.80
2018-10-18T02:46:34.168Z,90.80
2018-10-18T02:49:02.912Z,91.00
2018-10-18T02:51:31.680Z,91.20
2018-10-18T02:54:00.840Z,91.10
2018-10-18T02:56:29.564Z,91.10
2018-10-18T02:58:58.380Z,91.00
2018-10-18T03:01:27.660Z,90.80
2018-10-18T03:03:56.569Z,90.60
2018-10-18T03:06:25.279Z,90.70
2018-10-18T03:08:53.980Z,91.00
2018-10-18T03:11:22.870Z,91.30
2018-10-18T03:13:51.555Z,91.30
2018-10-18T03:16:20.315Z,91.40
2018-10-18T03:18:49.030Z,91.50
2018-10-18T03:21:17.759Z,91.70
2018-10-18T03:23:46.470Z,91.90
2018-10-18T03:26:15.397Z,92.00
2018-10-18T03:28:44.365Z,92.00
2018-10-18T03:31:13.134Z,91.80
2018-10-18T03:33:41.907Z,91.60
2018-10-18T03:36:13.081Z,91.30
2018-10-18T03:38:41.727Z,91.10
2018-10-18T03:41:10.626Z,90.90
2018-10-18T03:43:48.110Z,90.90
2018-10-18T03:46:16.797Z,91.00
2018-10-18T03:48:46.782Z,91.30
2018-10-18T03:51:15.535Z,91.60
2018-10-18T03:53:44.229Z,91.80
2018-10-18T03:56:12.964Z,91.80
2018-10-18T03:58:41.734Z,91.90
2018-10-18T04:01:10.405Z,92.10
2018-10-18T04:03:39.044Z,92.30
2018-10-18T04:06:07.833Z,92.40
2018-10-18T04:08:36.555Z,92.50
2018-10-18T04:11:05.279Z,92.60
2018-10-18T04:13:34.162Z,92.70
2018-10-18T04:16:02.903Z,92.80
2018-10-18T04:18:31.812Z,92.70
2018-10-18T04:21:00.338Z,92.70
2018-10-18T04:23:32.339Z,92.70
2018-10-18T04:26:02.409Z,92.60
2018-10-18T04:28:31.883Z,92.70
2018-10-18T04:31:01.461Z,92.90
2018-10-18T04:33:30.181Z,93.20
2018-10-18T04:35:58.926Z,93.10
2018-10-18T04:38:27.617Z,93.10
2018-10-18T04:41:10.519Z,93.20
2018-10-18T04:43:39.379Z,93.10
2018-10-18T04:46:08.157Z,92.90
2018-10-18T04:48:37.009Z,92.80
2018-10-18T04:51:06.047Z,92.80
2018-10-18T04:53:34.947Z,92.70
2018-10-18T04:56:03.663Z,92.60
2018-10-18T04:58:32.687Z,92.60
2018-10-18T05:01:01.477Z,92.50
2018-10-18T05:03:30.151Z,92.40
2018-10-18T05:06:00.288Z,92.20
2018-10-18T05:08:29.445Z,92.20
2018-10-18T05:10:58.283Z,92.10
2018-10-18T05:13:27.366Z,92.20
2018-10-18T05:15:56.156Z,92.30
2018-10-18T05:18:25.450Z,92.50
2018-10-18T05:20:54.286Z,92.60
2018-10-18T05:23:23.347Z,92.70
2018-10-18T05:25:53.261Z,92.90
2018-10-18T05:28:22.640Z,92.90
2018-10-18T05:30:51.314Z,92.90
2018-10-18T05:33:20.054Z,93.00
2018-10-18T05:35:48.819Z,93.00
2018-10-18T05:38:17.573Z,92.90
2018-10-18T05:40:46.333Z,93.00
2018-10-18T05:43:15.122Z,93.00
2018-10-18T05:45:43.803Z,93.20
2018-10-18T05:48:12.542Z,93.10
2018-10-18T05:50:41.615Z,92.90
2018-10-18T05:53:10.446Z,92.70
2018-10-18T05:55:39.090Z,92.50
2018-10-18T05:58:07.763Z,92.40
2018-10-18T06:00:36.594Z,92.40
2018-10-18T06:03:05.708Z,92.10
2018-10-18T06:05:34.563Z,92.00
2018-10-18T06:08:03.761Z,91.90
2018-10-18T06:10:43.515Z,92.00
2018-10-18T06:13:12.511Z,92.00
2018-10-18T06:15:41.157Z,92.00
2018-10-18T06:18:09.873Z,92.00
2018-10-18T06:20:38.596Z,92.00
2018-10-18T06:23:10.512Z,92.00
2018-10-18T06:25:39.370Z,92.00
2018-10-18T06:28:08.088Z,92.00
2018-10-18T06:30:38.047Z,91.90
2018-10-18T06:33:06.814Z,91.80
2018-10-18T06:35:35.406Z,91.90
2018-10-18T06:38:04.178Z,91.90
2018-10-18T06:40:32.838Z,92.00
2018-10-18T06:43:01.668Z,92.10
2018-10-18T06:45:30.434Z,92.20
2018-10-18T06:47:59.301Z,92.30
2018-10-18T06:50:27.891Z,92.40
2018-10-18T06:52:56.577Z,92.70
2018-10-18T06:55:25.371Z,93.00
2018-10-18T06:57:54.202Z,93.10
2018-10-18T07:00:24.291Z,93.20
2018-10-18T07:02:53.511Z,93.30
2018-10-18T07:05:24.402Z,93.50
2018-10-18T07:07:53.182Z,93.40
2018-10-18T07:10:21.911Z,93.40
2018-10-18T07:12:50.653Z,93.40
2018-10-18T07:15:19.851Z,93.40
2018-10-18T07:17:49.140Z,93.30
2018-10-18T07:20:18.142Z,93.20
2018-10-18T07:22:47.118Z,92.90
2018-10-18T07:25:16.840Z,92.60
2018-10-18T07:27:52.012Z,92.30
2018-10-18T07:30:20.970Z,92.00
2018-10-18T07:32:49.686Z,91.70
2018-10-18T07:35:18.610Z,91.50
2018-10-18T07:37:47.334Z,91.40
2018-10-18T07:40:16.804Z,91.00
2018-10-18T07:42:45.972Z,90.70
2018-10-18T07:45:15.971Z,90.40
2018-10-18T07:47:46.008Z,90.30
2018-10-18T07:50:15.151Z,90.30
2018-10-18T07:52:45.342Z,90.00
2018-10-18T07:55:14.707Z,89.80
2018-10-18T07:57:44.116Z,89.70
2018-10-18T08:00:14.286Z,89.40
2018-10-18T08:02:43.766Z,89.10
2018-10-18T08:05:13.305Z,89.20
2018-10-18T08:07:42.048Z,89.20
2018-10-18T08:10:15.773Z,88.40
2018-10-18T08:12:44.500Z,87.90
2018-10-18T08:15:14.511Z,87.40
2018-10-18T08:17:44.242Z,86.80
2018-10-18T08:20:13.610Z,85.80
2018-10-18T08:22:44.249Z,85.30
2018-10-18T08:25:13.275Z,85.10
2018-10-18T08:27:41.978Z,84.40
2018-10-18T08:30:12.483Z,83.90
2018-10-18T08:32:43.746Z,83.50
2018-10-18T08:35:13.141Z,82.50
2018-10-18T08:37:41.956Z,81.70
2018-10-18T08:40:10.586Z,81.00
2018-10-18T08:42:39.402Z,79.80
2018-10-18T08:45:09.859Z,79.80
2018-10-18T08:47:38.671Z,78.90
2018-10-18T08:50:09.573Z,78.40
2018-10-18T08:52:38.893Z,78.00
2018-10-18T08:55:09.920Z,77.20
2018-10-18T08:57:38.639Z,77.00
2018-10-18T09:00:08.345Z,76.70
2018-10-18T09:02:37.066Z,75.40
2018-10-18T09:05:07.410Z,75.80
2018-10-18T09:07:36.632Z,75.80
2018-10-18T09:10:07.217Z,75.00
2018-10-18T09:12:36.542Z,74.90
2018-10-18T09:15:06.623Z,73.50
2018-10-18T09:17:35.585Z,73.40
2018-10-18T09:20:04.816Z,71.60
2018-10-18T09:22:33.883Z,70.20
2018-10-18T09:25:04.490Z,70.20
2018-10-18T09:27:34.050Z,69.70
2018-10-18T09:30:09.882Z,69.50
2018-10-18T09:32:38.952Z,68.70
2018-10-18T09:35:08.752Z,68.70
2018-10-18T09:37:37.971Z,69.80
2018-10-18T09:40:09.105Z,69.30
2018-10-18T09:42:38.355Z,69.10
2018-10-18T09:45:09.770Z,68.40
2018-10-18T09:47:38.642Z,68.80
2018-10-18T09:50:07.798Z,69.90
2018-10-18T09:52:37.339Z,68.10
2018-10-18T09:55:07.443Z,68.10
2018-10-18T09:57:36.367Z,67.40
2018-10-18T10:00:05.293Z,67.00
2018-10-18T10:02:41.114Z,66.40
2018-10-18T10:05:13.389Z,67.70
2018-10-18T10:07:46.219Z,66.70
2018-10-18T10:10:15.139Z,66.60
2018-10-18T10:12:44.639Z,65.90
2018-10-18T10:15:14.050Z,65.10
2018-10-18T10:17:43.263Z,64.80
2018-10-18T10:20:11.976Z,65.80
2018-10-18T10:22:40.708Z,66.50
2018-10-18T10:25:09.616Z,64.50
2018-10-18T10:27:38.701Z,65.00
2018-10-18T10:30:07.442Z,64.40
2018-10-18T10:32:35.959Z,65.10
2018-10-18T10:35:05.413Z,63.60
2018-10-18T10:37:34.035Z,64.10
2018-10-18T10:40:05.320Z,64.20
2018-10-18T10:42:35.600Z,63.90
2018-10-18T10:45:04.524Z,63.60
2018-10-18T10:47:33.191Z,63.50
2018-10-18T10:50:01.868Z,62.60
2018-10-18T10:52:30.570Z,60.80
2018-10-18T10:54:59.235Z,61.30
2018-10-18T10:57:27.935Z,61.70
2018-10-18T10:59:56.691Z,62.80
2018-10-18T11:02:27.563Z,62.30
2018-10-18T11:04:56.365Z,61.40
2018-10-18T11:07:29.631Z,60.70
2018-10-18T11:09:58.122Z,59.20
2018-10-18T11:12:26.754Z,60.10
2018-10-18T11:14:58.811Z,59.90
2018-10-18T11:17:27.453Z,58.70
2018-10-18T11:20:00.021Z,57.70
2018-10-18T11:22:28.766Z,58.10
2018-10-18T11:24:57.474Z,58.10
2018-10-18T11:27:26.396Z,57.70
2018-10-18T11:29:56.159Z,57.30
2018-10-18T11:32:25.042Z,57.00
2018-10-18T11:34:53.830Z,56.50
2018-10-18T11:37:22.677Z,56.50
2018-10-18T11:39:52.023Z,56.50
2018-10-18T11:42:20.757Z,56.20
2018-10-18T11:44:59.820Z,56.30
2018-10-18T11:47:29.615Z,55.50
2018-10-18T11:49:58.320Z,56.20
2018-10-18T11:52:27.336Z,56.10
2018-10-18T11:54:56.503Z,56.10
2018-10-18T11:57:39.421Z,55.50
2018-10-18T12:00:10.811Z,55.40
2018-10-18T12:02:40.516Z,54.40
2018-10-18T12:05:09.203Z,55.30
2018-10-18T12:07:48.426Z,55.80
2018-10-18T12:10:17.228Z,55.80
2018-10-18T12:12:48.160Z,55.60
2018-10-18T12:15:16.801Z,54.80
2018-10-18T12:17:45.623Z,55.60
2018-10-18T12:20:15.772Z,55.50
2018-10-18T12:22:44.770Z,55.20
2018-10-18T12:25:14.617Z,56.20
2018-10-18T12:27:44.852Z,56.10
2018-10-18T12:30:14.417Z,55.00
2018-10-18T12:32:43.254Z,55.60
2018-10-18T12:35:12.214Z,54.80
2018-10-18T12:37:40.862Z,54.10
2018-10-18T12:40:10.158Z,54.20
2018-10-18T12:42:41.685Z,53.30
2018-10-18T12:45:11.570Z,53.70
2018-10-18T12:47:40.615Z,52.90
2018-10-18T12:50:09.599Z,52.80
2018-10-18T12:52:38.346Z,53.00
2018-10-18T12:55:07.088Z,52.50
2018-10-18T12:57:36.122Z,52.60
2018-10-18T13:00:05.560Z,51.60
2018-10-18T13:02:34.545Z,52.90
2018-10-18T13:05:10.706Z,53.40
2018-10-18T13:07:40.896Z,53.10
2018-10-18T13:10:11.678Z,53.30
2018-10-18T13:12:41.842Z,53.10
2018-10-18T13:15:11.704Z,52.60
2018-10-18T13:17:40.550Z,52.20
2018-10-18T13:20:10.476Z,52.90
2018-10-18T13:22:40.849Z,52.90
2018-10-18T13:25:11.075Z,52.70
2018-10-18T13:27:39.835Z,53.30
2018-10-18T13:30:09.877Z,53.70
2018-10-18T13:32:39.386Z,52.40
2018-10-18T13:35:09.265Z,53.00
2018-10-18T13:37:39.524Z,53.30
2018-10-18T13:40:09.107Z,53.20
2018-10-18T13:42:38.461Z,52.80
2018-10-18T13:45:07.664Z,52.90
2018-10-18T13:47:36.817Z,52.40
2018-10-18T13:50:06.322Z,52.10
2018-10-18T13:52:35.327Z,52.00
2018-10-18T13:55:04.142Z,50.70
2018-10-18T13:57:32.867Z,51.30
2018-10-18T14:00:23.896Z,51.60
2018-10-18T14:02:54.072Z,50.80
2018-10-18T14:05:23.294Z,50.60
2018-10-18T14:07:53.255Z,51.20
2018-10-18T14:10:22.107Z,50.60
2018-10-18T14:12:52.445Z,50.40
2018-10-18T14:15:21.272Z,49.30
2018-10-18T14:17:50.955Z,50.00
2018-10-18T14:20:19.993Z,50.20
2018-10-18T14:22:49.301Z,49.50
2018-10-18T14:25:18.175Z,49.70
2018-10-18T14:27:47.238Z,48.90
2018-10-18T14:30:16.129Z,48.90
2018-10-18T14:32:44.839Z,48.50
2018-10-18T14:35:13.764Z,48.50
2018-10-18T14:37:42.511Z,48.20
2018-10-18T14:40:12.602Z,47.70
2018-10-18T14:42:41.970Z,47.00
2018-10-18T14:45:10.987Z,46.50
2018-10-18T14:47:39.876Z,45.90
2018-10-18T14:50:10.981Z,45.80
2018-10-18T14:52:39.713Z,45.70
2018-10-18T14:55:09.186Z,46.50
2018-10-18T14:57:38.645Z,46.40
2018-10-18T15:00:09.555Z,46.70
2018-10-18T15:02:38.266Z,46.90
2018-10-18T15:05:09.758Z,47.70
2018-10-18T15:07:39.181Z,47.70
2018-10-18T15:10:11.924Z,49.10
2018-10-18T15:12:42.495Z,50.80
2018-10-18T15:15:15.251Z,51.50
2018-10-18T15:17:45.963Z,52.40
2018-10-18T15:20:19.080Z,52.00
2018-10-18T15:22:52.724Z,51.70
2018-10-18T15:25:26.142Z,51.20
2018-10-18T15:27:56.024Z,50.90
2018-10-18T15:30:25.220Z,51.00
2018-10-18T15:32:54.196Z,50.70
2018-10-18T15:35:23.892Z,51.20
2018-10-18T15:37:52.625Z,51.50
2018-10-18T15:40:24.002Z,53.00
2018-10-18T15:42:54.684Z,55.00
2018-10-18T15:45:26.925Z,56.80
2018-10-18T15:48:02.068Z,58.90
2018-10-18T15:50:32.853Z,60.70
2018-10-18T15:53:04.529Z,62.50
2018-10-18T15:55:35.228Z,63.60
2018-10-18T15:58:05.757Z,64.60
2018-10-18T16:00:36.825Z,65.50
2018-10-18T16:03:07.447Z,66.20
2018-10-18T16:05:37.530Z,66.70
2018-10-18T16:08:08.862Z,67.00
2018-10-18T16:10:39.055Z,67.90
2018-10-18T16:13:07.788Z,68.10
2018-10-18T16:15:36.486Z,68.70
2018-10-18T16:18:05.383Z,69.10
2018-10-18T16:20:34.162Z,69.50
2018-10-18T16:23:02.998Z,69.70
2018-10-18T16:25:31.688Z,69.90
2018-10-18T16:28:00.463Z,70.30
2018-10-18T16:30:29.857Z,70.60
2018-10-18T16:32:58.550Z,71.00
2018-10-18T16:35:27.370Z,71.30
2018-10-18T16:37:56.060Z,71.70
2018-10-18T16:40:24.944Z,71.50
2018-10-18T16:42:53.595Z,72.00
2018-10-18T16:45:22.270Z,72.20
2018-10-18T16:47:51.310Z,72.70
2018-10-18T16:50:20.034Z,73.00
2018-10-18T16:52:48.691Z,73.50
2018-10-18T16:55:17.464Z,74.00
2018-10-18T16:57:46.262Z,74.20
2018-10-18T17:00:15.139Z,74.40
2018-10-18T17:02:43.671Z,74.80
2018-10-18T17:05:12.423Z,75.50
2018-10-18T17:07:41.203Z,75.90
2018-10-18T17:10:10.055Z,76.00
2018-10-18T17:12:39.507Z,76.30
2018-10-18T17:15:08.579Z,76.70
2018-10-18T17:17:37.815Z,76.90
2018-10-18T17:20:08.692Z,76.70
2018-10-18T17:22:37.889Z,77.30
2018-10-18T17:25:07.632Z,78.00
2018-10-18T17:27:37.071Z,78.40
2018-10-18T17:30:06.896Z,79.20
2018-10-18T17:32:36.793Z,79.30
2018-10-18T17:35:07.669Z,79.20
2018-10-18T17:37:36.366Z,79.10
2018-10-18T17:40:05.710Z,79.20
2018-10-18T17:42:34.386Z,79.30
2018-10-18T17:45:03.927Z,79.30
2018-10-18T17:47:32.674Z,79.50
2018-10-18T17:50:01.383Z,79.90
2018-10-18T17:52:30.190Z,80.10
2018-10-18T17:54:59.494Z,80.60
2018-10-18T17:57:28.283Z,80.60
2018-10-18T17:59:57.355Z,80.80
2018-10-18T18:02:27.312Z,81.00
2018-10-18T18:04:57.134Z,81.10
2018-10-18T18:07:26.026Z,81.30
2018-10-18T18:09:54.740Z,81.40
2018-10-18T18:12:23.505Z,81.40
2018-10-18T18:14:52.502Z,81.60
2018-10-18T18:17:21.617Z,82.70
2018-10-18T18:19:50.356Z,82.30
2018-10-18T18:22:19.080Z,82.20
2018-10-18T18:24:47.853Z,82.60
2018-10-18T18:27:16.647Z,84.10
2018-10-18T18:29:47.273Z,84.20
2018-10-18T18:32:16.139Z,84.10
2018-10-18T18:34:44.975Z,84.00
2018-10-18T18:37:14.080Z,83.80
2018-10-18T18:39:42.980Z,83.50
2018-10-18T18:42:11.788Z,83.50
2018-10-18T18:44:41.535Z,83.50
2018-10-18T18:47:10.667Z,83.60
2018-10-18T18:49:39.851Z,83.80
2018-10-18T18:52:08.616Z,83.70
2018-10-18T18:54:37.746Z,84.10
2018-10-18T18:57:06.780Z,85.30
2018-10-18T18:59:37.475Z,86.30
2018-10-18T19:02:08.922Z,86.40
2018-10-18T19:04:38.416Z,86.50
2018-10-18T19:07:07.590Z,86.70
2018-10-18T19:09:38.315Z,86.50
2018-10-18T19:12:07.809Z,86.20
2018-10-18T19:14:36.625Z,85.90
2018-10-18T19:17:06.446Z,85.80
2018-10-18T19:19:36.361Z,85.70
2018-10-18T19:22:13.546Z,86.20
2018-10-18T19:24:44.521Z,86.20
2018-10-18T19:27:13.288Z,86.30
2018-10-18T19:29:42.067Z,86.30
2018-10-18T19:32:11.900Z,86.40
2018-10-18T19:34:40.802Z,86.60
2018-10-18T19:37:09.555Z,86.50
2018-10-18T19:39:38.684Z,86.40
2018-10-18T19:42:07.530Z,86.50
2018-10-18T19:44:37.243Z,86.60
2018-10-18T19:47:05.998Z,86.50
2018-10-18T19:49:34.755Z,86.30
2018-10-18T19:52:03.615Z,86.00
2018-10-18T19:54:32.321Z,86.20
2018-10-18T19:57:01.051Z,86.50
2018-10-18T19:59:29.789Z,86.40
2018-10-18T20:01:58.556Z,86.50
2018-10-18T20:04:27.409Z,86.80
2018-10-18T20:06:56.515Z,86.90
2018-10-18T20:09:25.258Z,86.80
2018-10-18T20:11:54.077Z,86.80
2018-10-18T20:14:22.963Z,87.00
2018-10-18T20:16:52.936Z,86.80
2018-10-18T20:19:22.001Z,87.10
2018-10-18T20:21:50.817Z,87.10
2018-10-18T20:24:20.285Z,87.00
2018-10-18T20:26:49.377Z,87.20
2018-10-18T20:29:18.058Z,87.10
2018-10-18T20:31:46.883Z,87.20
2018-10-18T20:34:15.598Z,87.40
2018-10-18T20:36:44.666Z,87.60
2018-10-18T20:39:14.006Z,87.70
2018-10-18T20:41:42.724Z,87.70
2018-10-18T20:44:11.420Z,87.80
2018-10-18T20:46:41.166Z,87.80
2018-10-18T20:49:10.335Z,87.90
2018-10-18T20:51:39.208Z,88.10
2018-10-18T20:54:07.974Z,88.20
2018-10-18T20:56:36.587Z,88.30
2018-10-18T20:59:05.281Z,88.40
2018-10-18T21:01:33.895Z,88.30
2018-10-18T21:04:02.623Z,88.10
2018-10-18T21:06:31.690Z,88.10
2018-10-18T21:09:00.367Z,88.30
2018-10-18T21:11:29.111Z,88.60
2018-10-18T21:13:57.832Z,88.80
2018-10-18T21:16:26.577Z,88.80
2018-10-18T21:18:55.286Z,89.50
2018-10-18T21:21:24.149Z,89.70
2018-10-18T21:23:53.310Z,89.80
2018-10-18T21:26:22.090Z,89.50
2018-10-18T21:28:50.865Z,89.40
2018-10-18T21:31:19.541Z,89.60
2018-10-18T21:33:48.407Z,89.50
2018-10-18T21:36:17.116Z,89.50
2018-10-18T21:38:45.948Z,90.30
2018-10-18T21:41:14.799Z,90.60
2018-10-18T21:43:43.457Z,90.70
2018-10-18T21:46:12.135Z,90.90
2018-10-18T21:48:41.209Z,91.20
2018-10-18T21:51:10.150Z,91.00
2018-10-18T21:53:38.814Z,90.80
2018-10-18T21:56:07.546Z,90.70
2018-10-18T21:58:36.272Z,90.40
2018-10-18T22:01:05.425Z,90.30
2018-10-18T22:03:34.060Z,90.10
2018-10-18T22:06:02.771Z,90.00
2018-10-18T22:08:31.482Z,89.90
2018-10-18T22:11:00.163Z,90.00
2018-10-18T22:13:28.952Z,90.00
2018-10-18T22:15:57.624Z,89.90
2018-10-18T22:18:26.374Z,90.00
2018-10-18T22:20:55.092Z,90.20
2018-10-18T22:23:23.793Z,90.60
2018-10-18T22:25:52.515Z,90.80
2018-10-18T22:28:21.220Z,90.80
2018-10-18T22:30:50.232Z,91.00
2018-10-18T22:33:18.936Z,91.20
2018-10-18T22:35:47.851Z,91.10
2018-10-18T22:38:16.558Z,91.00
2018-10-18T22:40:45.242Z,91.00
2018-10-18T22:43:13.940Z,91.00
2018-10-18T22:45:46.743Z,91.30
2018-10-18T22:48:15.563Z,91.10
2018-10-18T22:50:44.837Z,91.20
2018-10-18T22:53:14.118Z,91.30
2018-10-18T22:55:42.760Z,91.50
2018-10-18T22:58:11.470Z,91.70
2018-10-18T23:00:45.934Z,91.90
2018-10-18T23:03:14.885Z,92.00
2018-10-18T23:05:43.493Z,92.10
2018-10-18T23:08:14.421Z,92.30
2018-10-18T23:10:43.153Z,92.50
2018-10-18T23:13:11.823Z,92.90
2018-10-18T23:15:40.498Z,93.10
2018-10-18T23:18:10.234Z,93.00
2018-10-18T23:20:40.070Z,92.60
2018-10-18T23:23:09.257Z,92.30
2018-10-18T23:25:38.139Z,92.10
2018-10-18T23:28:06.934Z,92.10
2018-10-18T23:30:35.583Z,92.40
2018-10-18T23:33:04.392Z,92.40
2018-10-18T23:35:33.109Z,92.40
2018-10-18T23:38:01.884Z,92.50
2018-10-18T23:40:30.736Z,92.60
2018-10-18T23:42:59.467Z,92.40
2018-10-18T23:45:28.105Z,92.40
2018-10-18T23:47:56.833Z,92.70
2018-10-18T23:50:25.522Z,92.80
2018-10-18T23:52:54.189Z,93.10
2018-10-18T23:55:22.955Z,93.20
2018-10-18T23:57:51.750Z,93.20
